Time;durP1;ratioP1;P1;durP2;ratioP2;P2;SDS_P1;SDS_P2;PMS_P1;PMS_P2;Temp;Humidity;BMP_temperature;BMP_pressure;BME280_temperature;BME280_humidity;BME280_pressure;Samples;Min_cycle;Max_cycle;Signal;HPM_P1;HPM_P2
2022/10/16 00:02:17;;;;;;;;;;;21.60;84.10;;;;;;5090204;28;19982;-70
2022/10/16 00:04:43;;;;;;;;;;;21.50;85.10;;;;;;5092582;28;19908;-69
2022/10/16 00:07:10;;;;;;;;;;;21.70;84.50;;;;;;5092999;28;19908;-69
2022/10/16 00:09:36;;;;;;;;;;;21.70;83.50;;;;;;5075170;28;19995;-70
2022/10/16 00:12:04;;;;;;;;;;;21.80;83.50;;;;;;5092338;28;19908;-69
2022/10/16 00:14:30;;;;;;;;;;;22.00;83.30;;;;;;5091801;28;20326;-69
2022/10/16 00:16:57;;;;;;;;;;;22.00;83.00;;;;;;5091286;28;19962;-69
2022/10/16 00:19:24;;;;;;;;;;;21.90;82.80;;;;;;5069427;28;20319;-72
2022/10/16 00:21:50;;;;;;;;;;;22.00;82.50;;;;;;5090905;28;19908;-69
2022/10/16 00:24:17;;;;;;;;;;;22.00;81.60;;;;;;5091761;28;20384;-68
2022/10/16 00:26:50;;;;;;;;;;;22.10;83.00;;;;;;5071863;28;20383;-70
2022/10/16 00:29:16;;;;;;;;;;;22.40;82.90;;;;;;5086968;28;19951;-68
2022/10/16 00:31:43;;;;;;;;;;;22.50;80.30;;;;;;5091558;28;19919;-69
2022/10/16 00:34:11;;;;;;;;;;;22.40;80.10;;;;;;5090933;28;19915;-68
2022/10/16 00:36:40;;;;;;;;;;;22.40;82.60;;;;;;5092256;28;20318;-69
2022/10/16 00:39:10;;;;;;;;;;;22.60;81.80;;;;;;5081073;28;20395;-69
2022/10/16 00:41:37;;;;;;;;;;;22.70;80.50;;;;;;5080797;28;20016;-69
2022/10/16 00:44:23;;;;;;;;;;;22.70;80.00;;;;;;5082239;28;19991;-69
2022/10/16 00:46:50;;;;;;;;;;;22.70;79.60;;;;;;5091122;28;19908;-70
2022/10/16 00:49:19;;;;;;;;;;;22.80;81.40;;;;;;5091669;28;19955;-69
2022/10/16 00:51:47;;;;;;;;;;;22.90;82.40;;;;;;5091568;28;19916;-69
2022/10/16 00:54:20;;;;;;;;;;;22.80;83.00;;;;;;5091226;28;19965;-69
2022/10/16 00:56:47;;;;;;;;;;;22.90;82.80;;;;;;5074256;28;19912;-69
2022/10/16 00:59:19;;;;;;;;;;;23.10;82.10;;;;;;5091723;28;20448;-69
2022/10/16 01:01:47;;;;;;;;;;;23.20;82.20;;;;;;5091454;28;19912;-69
2022/10/16 01:04:14;;;;;;;;;;;23.40;82.50;;;;;;5073301;28;19912;-69
2022/10/16 01:06:49;;;;;;;;;;;23.40;81.50;;;;;;5092019;28;19916;-68
2022/10/16 01:09:16;;;;;;;;;;;23.40;82.20;;;;;;5091623;28;19960;-70
2022/10/16 01:11:42;;;;;;;;;;;23.40;82.30;;;;;;5091338;28;20038;-67
2022/10/16 01:14:15;;;;;;;;;;;23.40;82.10;;;;;;5091472;28;19920;-69
2022/10/16 01:16:49;;;;;;;;;;;23.30;82.60;;;;;;5091656;28;20423;-69
2022/10/16 01:19:34;;;;;;;;;;;23.20;82.00;;;;;;5090574;28;19920;-69
2022/10/16 01:22:01;;;;;;;;;;;23.10;82.00;;;;;;5073395;28;19995;-71
2022/10/16 01:24:28;;;;;;;;;;;22.90;83.30;;;;;;5091720;28;19915;-71
2022/10/16 01:27:07;;;;;;;;;;;22.90;85.10;;;;;;5091096;28;19908;-68
2022/10/16 01:30:00;;;;;;;;;;;22.90;85.30;;;;;;5087772;28;19927;-69
2022/10/16 01:32:42;;;;;;;;;;;23.00;85.50;;;;;;5059858;28;19912;-69
2022/10/16 01:35:27;;;;;;;;;;;23.60;85.00;;;;;;5091591;28;19912;-68
2022/10/16 01:37:59;;;;;;;;;;;24.20;84.10;;;;;;5090990;28;20604;-69
2022/10/16 01:40:27;;;;;;;;;;;24.60;82.10;;;;;;5091759;28;20006;-68
2022/10/16 01:43:01;;;;;;;;;;;24.90;81.70;;;;;;5090612;28;19912;-69
2022/10/16 01:45:29;;;;;;;;;;;24.90;81.20;;;;;;5091152;28;19963;-69
2022/10/16 01:47:56;;;;;;;;;;;25.20;80.60;;;;;;5094612;28;19908;-70
2022/10/16 01:50:24;;;;;;;;;;;25.40;79.10;;;;;;5073614;28;19908;-70
2022/10/16 01:52:52;;;;;;;;;;;25.30;79.40;;;;;;5094999;28;20400;-70
2022/10/16 01:55:22;;;;;;;;;;;25.20;79.00;;;;;;5095106;28;20384;-71
2022/10/16 01:57:50;;;;;;;;;;;25.20;78.70;;;;;;5094308;28;19912;-68
2022/10/16 02:00:17;;;;;;;;;;;25.30;79.10;;;;;;5092872;28;20270;-68
2022/10/16 02:02:47;;;;;;;;;;;25.50;79.00;;;;;;5089077;28;20483;-70
2022/10/16 02:05:19;;;;;;;;;;;25.80;79.10;;;;;;5076631;28;19913;-70
2022/10/16 02:07:46;;;;;;;;;;;25.70;78.20;;;;;;5077026;28;20587;-71
2022/10/16 02:10:12;;;;;;;;;;;25.30;78.40;;;;;;5095250;28;19908;-70
2022/10/16 02:12:41;;;;;;;;;;;25.20;80.50;;;;;;5094084;28;19916;-70
2022/10/16 02:15:09;;;;;;;;;;;25.10;78.90;;;;;;5094581;28;19920;-71
2022/10/16 02:17:35;;;;;;;;;;;25.30;79.20;;;;;;5094321;28;19912;-71
2022/10/16 02:20:03;;;;;;;;;;;25.30;78.70;;;;;;5094472;28;19924;-71
2022/10/16 02:22:29;;;;;;;;;;;25.10;78.80;;;;;;5094742;28;19909;-70
2022/10/16 02:24:58;;;;;;;;;;;24.80;80.20;;;;;;5094504;28;19908;-71
2022/10/16 02:27:31;;;;;;;;;;;25.00;80.70;;;;;;5093623;28;19908;-70
2022/10/16 02:30:02;;;;;;;;;;;25.40;80.40;;;;;;5074795;28;19995;-71
2022/10/16 02:32:31;;;;;;;;;;;25.60;79.80;;;;;;5082965;28;19997;-70
2022/10/16 02:34:59;;;;;;;;;;;25.90;80.40;;;;;;5091059;28;20011;-69
2022/10/16 02:37:26;;;;;;;;;;;26.20;79.70;;;;;;5093085;28;20269;-70
2022/10/16 02:39:54;;;;;;;;;;;26.60;78.60;;;;;;5092581;28;19917;-69
2022/10/16 02:42:20;;;;;;;;;;;27.00;79.10;;;;;;5093800;28;20007;-69
2022/10/16 02:44:47;;;;;;;;;;;27.30;76.70;;;;;;5093634;28;19915;-71
2022/10/16 02:47:13;;;;;;;;;;;27.60;75.80;;;;;;5094392;28;19919;-70
2022/10/16 02:49:40;;;;;;;;;;;28.00;75.70;;;;;;5094036;28;20416;-70
2022/10/16 02:52:07;;;;;;;;;;;27.90;74.50;;;;;;5094036;28;20481;-67
2022/10/16 02:54:33;;;;;;;;;;;27.30;74.50;;;;;;5094373;28;19908;-67
2022/10/16 02:57:00;;;;;;;;;;;27.10;75.40;;;;;;5091530;28;19959;-68
2022/10/16 02:59:26;;;;;;;;;;;27.30;75.90;;;;;;5089166;28;19927;-67
2022/10/16 03:01:53;;;;;;;;;;;27.80;74.10;;;;;;5091171;28;19930;-69
2022/10/16 03:04:20;;;;;;;;;;;27.60;74.00;;;;;;5092843;28;19908;-70
2022/10/16 03:06:46;;;;;;;;;;;28.00;74.90;;;;;;5083595;28;19912;-68
2022/10/16 03:09:13;;;;;;;;;;;28.50;73.50;;;;;;5083457;28;20361;-69
2022/10/16 03:11:39;;;;;;;;;;;28.40;73.60;;;;;;5082857;28;19916;-68
2022/10/16 03:14:06;;;;;;;;;;;28.30;73.70;;;;;;5090889;28;19927;-68
2022/10/16 03:16:33;;;;;;;;;;;28.70;74.90;;;;;;5093498;28;19997;-69
2022/10/16 03:18:59;;;;;;;;;;;29.30;71.80;;;;;;5088276;28;19916;-69
2022/10/16 03:21:26;;;;;;;;;;;29.30;70.90;;;;;;5091591;28;19908;-69
2022/10/16 03:23:52;;;;;;;;;;;29.40;71.50;;;;;;5090638;28;19969;-69
2022/10/16 03:26:19;;;;;;;;;;;29.70;69.90;;;;;;5093911;28;19908;-70
2022/10/16 03:28:46;;;;;;;;;;;29.00;71.00;;;;;;5093807;28;19908;-70
2022/10/16 03:31:12;;;;;;;;;;;28.70;73.00;;;;;;5093757;28;20356;-70
2022/10/16 03:33:39;;;;;;;;;;;29.10;70.60;;;;;;5093141;28;19918;-71
2022/10/16 03:36:06;;;;;;;;;;;28.70;72.60;;;;;;5093099;28;19912;-69
2022/10/16 03:38:33;;;;;;;;;;;28.90;70.90;;;;;;5093226;28;19916;-70
2022/10/16 03:40:59;;;;;;;;;;;28.80;71.10;;;;;;5093365;28;19908;-70
2022/10/16 03:43:26;;;;;;;;;;;28.80;70.40;;;;;;5091848;28;19957;-70
2022/10/16 03:45:53;;;;;;;;;;;28.50;70.90;;;;;;5088098;28;20438;-70
2022/10/16 03:48:19;;;;;;;;;;;28.60;71.00;;;;;;5093299;28;20002;-71
2022/10/16 03:50:48;;;;;;;;;;;29.30;71.00;;;;;;5085290;28;20297;-70
2022/10/16 03:53:15;;;;;;;;;;;29.80;69.50;;;;;;5090152;28;19909;-71
2022/10/16 03:55:42;;;;;;;;;;;30.20;69.50;;;;;;5090407;28;19916;-69
2022/10/16 03:58:09;;;;;;;;;;;30.50;68.40;;;;;;5092804;28;19916;-70
2022/10/16 04:00:35;;;;;;;;;;;30.20;69.10;;;;;;5092936;28;19908;-69
2022/10/16 04:03:02;;;;;;;;;;;30.60;68.00;;;;;;5090913;28;20339;-70
2022/10/16 04:05:29;;;;;;;;;;;30.80;67.20;;;;;;5090831;28;20010;-70
2022/10/16 04:07:55;;;;;;;;;;;30.60;68.00;;;;;;5092000;28;20055;-69
2022/10/16 04:10:22;;;;;;;;;;;30.90;67.30;;;;;;5089036;28;20626;-70
2022/10/16 04:12:49;;;;;;;;;;;30.90;69.00;;;;;;5074137;28;19913;-69
2022/10/16 04:15:15;;;;;;;;;;;31.20;67.00;;;;;;5088968;28;20381;-69
2022/10/16 04:17:42;;;;;;;;;;;31.30;66.20;;;;;;5091925;28;19912;-69
2022/10/16 04:20:09;;;;;;;;;;;31.50;66.10;;;;;;5073822;28;19916;-70
2022/10/16 04:22:35;;;;;;;;;;;30.90;68.70;;;;;;5081547;28;19909;-70
2022/10/16 04:25:02;;;;;;;;;;;31.30;68.00;;;;;;5091968;28;19919;-70
2022/10/16 04:27:31;;;;;;;;;;;31.40;67.90;;;;;;5085829;28;19913;-69
2022/10/16 04:29:58;;;;;;;;;;;31.80;65.80;;;;;;5091864;28;20381;-70
2022/10/16 04:32:24;;;;;;;;;;;31.60;66.80;;;;;;5091845;28;19954;-71
2022/10/16 04:34:51;;;;;;;;;;;31.90;66.20;;;;;;5090574;28;20013;-70
2022/10/16 04:37:17;;;;;;;;;;;31.70;66.70;;;;;;5092177;28;19908;-71
2022/10/16 04:39:44;;;;;;;;;;;31.20;67.20;;;;;;5075932;28;19920;-71
2022/10/16 04:42:11;;;;;;;;;;;31.40;67.20;;;;;;5091576;28;19919;-71
2022/10/16 04:44:38;;;;;;;;;;;31.70;65.90;;;;;;5090909;28;19912;-71
2022/10/16 04:47:04;;;;;;;;;;;32.20;65.30;;;;;;5089213;28;19952;-71
2022/10/16 04:49:31;;;;;;;;;;;31.80;65.10;;;;;;5088390;28;20394;-71
2022/10/16 04:51:58;;;;;;;;;;;31.70;66.20;;;;;;5073871;28;19908;-71
2022/10/16 04:54:25;;;;;;;;;;;30.90;66.20;;;;;;5074416;28;20495;-70
2022/10/16 04:56:51;;;;;;;;;;;30.50;68.50;;;;;;5092637;28;19912;-70
2022/10/16 04:59:19;;;;;;;;;;;30.90;66.90;;;;;;5085124;28;19959;-70
2022/10/16 05:01:46;;;;;;;;;;;30.90;66.70;;;;;;5092050;28;19908;-69
2022/10/16 05:04:14;;;;;;;;;;;31.20;66.50;;;;;;5091663;28;19990;-70
2022/10/16 05:06:41;;;;;;;;;;;31.00;66.10;;;;;;5089415;28;19913;-70
2022/10/16 05:09:08;;;;;;;;;;;31.20;65.40;;;;;;5091558;28;19919;-70
2022/10/16 05:11:35;;;;;;;;;;;31.00;65.90;;;;;;5092236;28;20249;-71
2022/10/16 05:14:02;;;;;;;;;;;31.20;65.70;;;;;;5092069;28;19924;-70
2022/10/16 05:16:30;;;;;;;;;;;31.20;67.30;;;;;;5092035;28;19919;-71
2022/10/16 05:18:56;;;;;;;;;;;31.30;66.50;;;;;;5067230;28;19924;-69
2022/10/16 05:21:23;;;;;;;;;;;31.40;65.90;;;;;;5091314;28;19908;-70
2022/10/16 05:23:50;;;;;;;;;;;31.30;66.10;;;;;;5091429;28;20365;-70
2022/10/16 05:26:16;;;;;;;;;;;31.50;66.20;;;;;;5086222;28;19994;-70
2022/10/16 05:28:43;;;;;;;;;;;31.00;66.90;;;;;;5085548;28;19912;-69
2022/10/16 05:31:10;;;;;;;;;;;31.00;66.30;;;;;;5089815;28;19908;-71
2022/10/16 05:33:37;;;;;;;;;;;31.00;66.90;;;;;;5091750;28;19916;-70
2022/10/16 05:36:08;;;;;;;;;;;30.90;67.30;;;;;;5091483;28;20006;-69
2022/10/16 05:38:35;;;;;;;;;;;30.50;67.70;;;;;;5091620;28;19916;-70
2022/10/16 05:41:03;;;;;;;;;;;30.10;68.60;;;;;;5091484;28;20013;-70
2022/10/16 05:43:30;;;;;;;;;;;29.90;68.40;;;;;;5091942;28;20352;-70
2022/10/16 05:46:00;;;;;;;;;;;29.50;68.60;;;;;;5091256;28;19908;-70
2022/10/16 05:48:27;;;;;;;;;;;28.90;69.40;;;;;;5081299;28;19944;-70
2022/10/16 05:51:04;;;;;;;;;;;28.70;71.00;;;;;;5071552;28;19908;-68
2022/10/16 05:53:32;;;;;;;;;;;28.80;70.90;;;;;;5088633;28;19990;-70
2022/10/16 05:55:59;;;;;;;;;;;29.10;70.50;;;;;;5091885;28;19915;-70
2022/10/16 05:58:26;;;;;;;;;;;29.10;71.10;;;;;;5091675;28;20364;-71
2022/10/16 06:00:53;;;;;;;;;;;29.40;70.80;;;;;;5091427;28;19916;-70
2022/10/16 06:03:20;;;;;;;;;;;29.50;69.70;;;;;;5090953;28;20338;-70
2022/10/16 06:05:47;;;;;;;;;;;29.00;70.60;;;;;;5090107;28;19908;-69
2022/10/16 06:08:13;;;;;;;;;;;29.30;69.80;;;;;;5085704;28;20007;-70
2022/10/16 06:10:40;;;;;;;;;;;29.10;70.00;;;;;;5091269;28;19908;-69
2022/10/16 06:13:06;;;;;;;;;;;29.20;70.30;;;;;;5091277;28;19927;-68
2022/10/16 06:15:33;;;;;;;;;;;29.20;70.10;;;;;;5091216;28;19927;-70
2022/10/16 06:18:00;;;;;;;;;;;29.20;69.70;;;;;;5090611;28;19908;-70
2022/10/16 06:20:26;;;;;;;;;;;29.40;69.70;;;;;;5089807;28;20528;-69
2022/10/16 06:22:53;;;;;;;;;;;29.00;70.50;;;;;;5091378;28;19908;-69
2022/10/16 06:25:20;;;;;;;;;;;28.50;71.30;;;;;;5091238;28;19966;-70
2022/10/16 06:27:47;;;;;;;;;;;27.80;72.70;;;;;;5089702;28;19908;-70
2022/10/16 06:30:13;;;;;;;;;;;26.80;74.60;;;;;;5089629;28;19942;-71
2022/10/16 06:32:40;;;;;;;;;;;26.50;75.30;;;;;;5091667;28;19908;-69
2022/10/16 06:35:07;;;;;;;;;;;26.10;76.30;;;;;;5093211;28;19909;-70
2022/10/16 06:37:33;;;;;;;;;;;25.70;77.70;;;;;;5094847;28;19964;-69
2022/10/16 06:40:00;;;;;;;;;;;25.70;77.40;;;;;;5095040;28;20008;-69
2022/10/16 06:42:27;;;;;;;;;;;25.50;77.50;;;;;;5076892;28;19915;-71
2022/10/16 06:44:53;;;;;;;;;;;25.30;78.50;;;;;;5094367;28;19962;-69
2022/10/16 06:47:20;;;;;;;;;;;25.30;78.00;;;;;;5094455;28;19908;-69
2022/10/16 06:49:47;;;;;;;;;;;25.30;77.80;;;;;;5094553;28;20323;-70
2022/10/16 06:52:14;;;;;;;;;;;25.10;78.10;;;;;;5075890;28;20058;-69
2022/10/16 06:54:40;;;;;;;;;;;24.80;79.10;;;;;;5089744;28;20315;-69
2022/10/16 06:57:07;;;;;;;;;;;24.50;79.50;;;;;;5092584;28;19919;-69
2022/10/16 06:59:33;;;;;;;;;;;23.90;81.20;;;;;;5094163;28;19916;-68
2022/10/16 07:02:00;;;;;;;;;;;23.70;82.10;;;;;;5093513;28;19977;-70
2022/10/16 07:04:27;;;;;;;;;;;23.60;82.90;;;;;;5093626;28;19991;-67
2022/10/16 07:06:53;;;;;;;;;;;23.30;82.90;;;;;;5094300;28;19942;-67
2022/10/16 07:09:20;;;;;;;;;;;23.20;83.80;;;;;;5094240;28;20295;-67
2022/10/16 07:11:46;;;;;;;;;;;23.00;84.30;;;;;;5093929;28;20416;-68
2022/10/16 07:14:17;;;;;;;;;;;22.90;84.20;;;;;;5093422;28;19916;-67
2022/10/16 07:16:43;;;;;;;;;;;22.80;85.30;;;;;;5093772;28;20280;-68
2022/10/16 07:19:12;;;;;;;;;;;22.60;86.20;;;;;;5094093;28;19920;-67
2022/10/16 07:21:38;;;;;;;;;;;22.50;86.60;;;;;;5093775;28;19919;-69
2022/10/16 07:24:06;;;;;;;;;;;22.40;87.20;;;;;;5092246;28;19920;-68
2022/10/16 07:26:34;;;;;;;;;;;22.30;87.30;;;;;;5093890;28;19931;-70
2022/10/16 07:29:01;;;;;;;;;;;22.30;87.50;;;;;;5094004;28;19908;-69
2022/10/16 07:31:27;;;;;;;;;;;22.20;88.00;;;;;;5093848;28;19915;-68
2022/10/16 07:33:54;;;;;;;;;;;22.10;88.60;;;;;;5092787;28;19968;-68
2022/10/16 07:36:21;;;;;;;;;;;21.90;89.00;;;;;;5084397;28;19938;-68
2022/10/16 07:38:48;;;;;;;;;;;21.90;89.20;;;;;;5074962;28;19923;-68
2022/10/16 07:41:16;;;;;;;;;;;21.90;89.40;;;;;;5071601;28;19908;-68
2022/10/16 07:43:49;;;;;;;;;;;21.80;89.10;;;;;;5082144;28;20434;-68
2022/10/16 07:46:16;;;;;;;;;;;21.80;89.00;;;;;;5072771;28;19920;-68
2022/10/16 07:48:47;;;;;;;;;;;21.80;89.10;;;;;;5083653;28;19912;-68
2022/10/16 07:51:15;;;;;;;;;;;21.70;89.00;;;;;;5086633;28;19912;-68
2022/10/16 07:53:42;;;;;;;;;;;21.70;89.00;;;;;;5084051;28;20013;-68
2022/10/16 07:56:09;;;;;;;;;;;21.60;89.20;;;;;;5092146;28;19908;-68
2022/10/16 07:58:39;;;;;;;;;;;21.50;89.60;;;;;;5092860;28;19916;-68
2022/10/16 08:01:07;;;;;;;;;;;21.40;89.10;;;;;;5092878;28;19915;-67
2022/10/16 08:03:33;;;;;;;;;;;21.20;89.80;;;;;;5092660;28;19954;-67
2022/10/16 08:06:01;;;;;;;;;;;21.10;90.00;;;;;;5092183;28;19916;-69
2022/10/16 08:08:28;;;;;;;;;;;21.00;90.50;;;;;;5092287;28;20327;-69
2022/10/16 08:10:55;;;;;;;;;;;21.10;90.60;;;;;;5088491;28;19916;-68
2022/10/16 08:13:21;;;;;;;;;;;21.00;90.60;;;;;;5080921;28;20331;-71
2022/10/16 08:15:48;;;;;;;;;;;20.90;90.70;;;;;;5089184;28;19912;-71
2022/10/16 08:18:15;;;;;;;;;;;20.90;90.90;;;;;;5080482;28;19920;-70
2022/10/16 08:20:43;;;;;;;;;;;20.70;91.20;;;;;;5081769;28;20015;-69
2022/10/16 08:23:13;;;;;;;;;;;20.70;91.30;;;;;;5092595;28;19908;-68
2022/10/16 08:25:40;;;;;;;;;;;20.60;91.50;;;;;;5090106;28;20010;-68
2022/10/16 08:28:08;;;;;;;;;;;20.50;91.50;;;;;;5091755;28;19912;-70
2022/10/16 08:30:35;;;;;;;;;;;20.40;91.70;;;;;;5091921;28;19908;-68
2022/10/16 08:33:01;;;;;;;;;;;20.30;92.00;;;;;;5089165;28;19965;-68
2022/10/16 08:35:28;;;;;;;;;;;20.30;92.00;;;;;;5092021;28;20344;-69
2022/10/16 08:37:55;;;;;;;;;;;20.20;91.60;;;;;;5091804;28;19954;-69
2022/10/16 08:40:21;;;;;;;;;;;20.20;91.50;;;;;;5091816;28;19916;-69
2022/10/16 08:43:06;;;;;;;;;;;20.20;91.60;;;;;;5088195;28;19912;-68
2022/10/16 08:45:35;;;;;;;;;;;20.20;91.10;;;;;;5089781;28;20004;-68
2022/10/16 08:48:21;;;;;;;;;;;20.00;91.50;;;;;;5089442;28;19913;-68
2022/10/16 08:50:48;;;;;;;;;;;20.10;91.80;;;;;;5082599;28;19955;-68
2022/10/16 08:53:22;;;;;;;;;;;20.10;91.80;;;;;;5080176;28;19927;-69
2022/10/16 08:55:50;;;;;;;;;;;20.00;91.70;;;;;;5082266;28;20017;-68
2022/10/16 08:58:18;;;;;;;;;;;20.10;91.70;;;;;;5082079;28;20470;-68
2022/10/16 09:00:47;;;;;;;;;;;20.10;91.80;;;;;;5091835;28;19915;-67
2022/10/16 09:03:17;;;;;;;;;;;20.00;92.00;;;;;;5091931;28;19915;-69
2022/10/16 09:05:46;;;;;;;;;;;19.90;92.20;;;;;;5091274;28;19908;-69
2022/10/16 09:08:22;;;;;;;;;;;19.90;92.40;;;;;;5092178;28;20380;-71
2022/10/16 09:11:07;;;;;;;;;;;19.90;92.50;;;;;;5073491;28;19915;-69
2022/10/16 09:13:56;;;;;;;;;;;19.80;92.90;;;;;;5092170;28;19961;-70
2022/10/16 09:16:28;;;;;;;;;;;19.90;93.20;;;;;;5092358;28;19908;-69
2022/10/16 09:19:04;;;;;;;;;;;19.80;93.00;;;;;;5091899;28;20253;-69
2022/10/16 09:21:31;;;;;;;;;;;19.70;93.30;;;;;;5091036;28;20272;-70
2022/10/16 09:24:10;;;;;;;;;;;19.70;93.10;;;;;;5092169;28;19920;-70
2022/10/16 09:26:37;;;;;;;;;;;19.60;92.90;;;;;;5092434;28;20018;-70
2022/10/16 09:29:04;;;;;;;;;;;19.60;92.60;;;;;;5092365;28;20406;-70
2022/10/16 09:31:30;;;;;;;;;;;19.60;92.20;;;;;;5092332;28;19908;-69
2022/10/16 09:34:05;;;;;;;;;;;19.60;92.10;;;;;;5092036;28;19908;-69
2022/10/16 09:36:39;;;;;;;;;;;19.60;92.10;;;;;;5092534;28;19919;-69
2022/10/16 09:39:07;;;;;;;;;;;19.50;92.10;;;;;;5092388;28;19916;-69
2022/10/16 09:41:37;;;;;;;;;;;19.50;92.40;;;;;;5092279;28;20030;-69
2022/10/16 09:44:05;;;;;;;;;;;19.50;93.00;;;;;;5090303;28;19912;-69
2022/10/16 09:46:37;;;;;;;;;;;19.50;93.30;;;;;;5091434;28;19916;-70
2022/10/16 09:49:05;;;;;;;;;;;19.50;93.90;;;;;;5091435;28;19908;-70
2022/10/16 09:51:36;;;;;;;;;;;19.50;94.90;;;;;;5092073;28;20281;-70
2022/10/16 09:54:13;;;;;;;;;;;19.50;95.50;;;;;;5087765;28;20442;-69
2022/10/16 09:56:40;;;;;;;;;;;19.50;96.20;;;;;;5089072;28;19915;-70
2022/10/16 09:59:13;;;;;;;;;;;19.50;96.80;;;;;;5091152;28;19973;-69
2022/10/16 10:01:46;;;;;;;;;;;19.40;97.50;;;;;;5087432;28;20008;-70
2022/10/16 10:04:13;;;;;;;;;;;19.40;97.90;;;;;;5090119;28;19912;-69
2022/10/16 10:06:51;;;;;;;;;;;19.30;98.20;;;;;;5091592;28;20395;-69
2022/10/16 10:09:17;;;;;;;;;;;19.30;98.50;;;;;;5093941;28;19961;-70
2022/10/16 10:11:46;;;;;;;;;;;19.30;98.70;;;;;;5093663;28;19916;-69
2022/10/16 10:14:33;;;;;;;;;;;19.20;98.70;;;;;;5082769;28;19927;-69
2022/10/16 10:17:19;;;;;;;;;;;19.10;98.90;;;;;;5091821;28;19908;-69
2022/10/16 10:19:45;;;;;;;;;;;19.10;99.00;;;;;;5092955;28;19945;-69
2022/10/16 10:22:26;;;;;;;;;;;19.10;99.20;;;;;;5095214;28;19915;-69
2022/10/16 10:24:57;;;;;;;;;;;19.10;99.40;;;;;;5094940;28;19973;-68
2022/10/16 10:27:46;;;;;;;;;;;19.10;99.40;;;;;;5095407;28;20443;-68
2022/10/16 10:30:28;;;;;;;;;;;19.10;99.30;;;;;;5084475;28;19908;-69
2022/10/16 10:33:13;;;;;;;;;;;19.10;99.20;;;;;;5094391;28;20470;-69
2022/10/16 10:35:53;;;;;;;;;;;19.00;99.00;;;;;;5095278;28;19909;-68
2022/10/16 10:38:38;;;;;;;;;;;19.00;99.40;;;;;;5095127;28;19918;-70
2022/10/16 10:41:17;;;;;;;;;;;19.00;99.10;;;;;;5095003;28;20347;-68
2022/10/16 10:43:44;;;;;;;;;;;19.00;99.30;;;;;;5094677;28;20410;-69
2022/10/16 10:46:15;;;;;;;;;;;19.00;99.30;;;;;;5095291;28;19943;-69
2022/10/16 10:48:55;;;;;;;;;;;19.00;99.40;;;;;;5095242;28;19914;-69
2022/10/16 10:51:36;;;;;;;;;;;19.00;99.60;;;;;;5094995;28;19958;-69
2022/10/16 10:54:03;;;;;;;;;;;19.00;99.90;;;;;;5094968;28;19908;-68
2022/10/16 10:56:55;;;;;;;;;;;19.00;99.90;;;;;;5094801;28;19908;-68
2022/10/16 10:59:40;;;;;;;;;;;19.00;99.90;;;;;;5077657;28;19963;-68
2022/10/16 11:02:10;;;;;;;;;;;19.00;99.90;;;;;;5092563;28;20004;-68
2022/10/16 11:05:01;;;;;;;;;;;19.00;99.90;;;;;;5094486;28;20261;-69
2022/10/16 11:07:34;;;;;;;;;;;19.00;99.90;;;;;;5094864;28;19908;-69
2022/10/16 11:10:09;;;;;;;;;;;19.00;99.90;;;;;;5094603;28;19912;-69
2022/10/16 11:12:39;;;;;;;;;;;19.00;99.90;;;;;;5094355;28;19914;-69
2022/10/16 11:15:17;;;;;;;;;;;19.00;99.90;;;;;;5094343;28;19920;-69
2022/10/16 11:17:53;;;;;;;;;;;19.00;99.90;;;;;;5093722;28;19908;-69
2022/10/16 11:20:22;;;;;;;;;;;19.00;99.90;;;;;;5094425;28;20361;-69
2022/10/16 11:23:01;;;;;;;;;;;18.90;99.90;;;;;;5094310;28;20004;-71
2022/10/16 11:25:29;;;;;;;;;;;18.90;99.90;;;;;;5076320;28;19908;-68
2022/10/16 11:27:59;;;;;;;;;;;18.90;99.90;;;;;;5094216;28;20470;-68
2022/10/16 11:30:27;;;;;;;;;;;18.90;99.90;;;;;;5094073;28;19991;-68
2022/10/16 11:32:56;;;;;;;;;;;18.90;99.90;;;;;;5093479;28;19912;-68
2022/10/16 11:35:33;;;;;;;;;;;18.80;99.90;;;;;;5093886;28;20269;-68
2022/10/16 11:38:02;;;;;;;;;;;18.80;99.90;;;;;;5094046;28;19931;-68
2022/10/16 11:40:33;;;;;;;;;;;18.80;99.90;;;;;;5093909;28;19916;-68
2022/10/16 11:43:10;;;;;;;;;;;18.70;99.90;;;;;;5093997;28;19909;-67
2022/10/16 11:45:40;;;;;;;;;;;18.70;99.90;;;;;;5075836;28;20273;-68
2022/10/16 11:48:30;;;;;;;;;;;18.70;99.90;;;;;;5094032;28;19908;-68
2022/10/16 11:51:01;;;;;;;;;;;18.70;99.90;;;;;;5094145;28;19950;-68
2022/10/16 11:53:46;;;;;;;;;;;18.70;99.90;;;;;;5093636;28;19957;-68
2022/10/16 11:56:17;;;;;;;;;;;18.70;99.90;;;;;;5093733;28;19956;-68
2022/10/16 11:58:53;;;;;;;;;;;18.70;99.90;;;;;;5093865;28;19919;-68
2022/10/16 12:01:23;;;;;;;;;;;18.70;99.90;;;;;;5093582;28;20388;-68
2022/10/16 12:04:02;;;;;;;;;;;18.60;99.90;;;;;;5092964;28;20378;-68
2022/10/16 12:06:28;;;;;;;;;;;18.60;99.90;;;;;;5093804;28;19966;-68
2022/10/16 12:08:56;;;;;;;;;;;18.60;99.90;;;;;;5093185;28;19920;-68
2022/10/16 12:11:23;;;;;;;;;;;18.60;99.90;;;;;;5093578;28;19958;-68
2022/10/16 12:13:50;;;;;;;;;;;18.60;99.90;;;;;;5093541;28;19920;-69
2022/10/16 12:16:16;;;;;;;;;;;18.60;99.90;;;;;;5093852;28;19909;-68
2022/10/16 12:18:44;;;;;;;;;;;18.60;99.90;;;;;;5093727;28;20322;-69
2022/10/16 12:21:13;;;;;;;;;;;18.50;99.90;;;;;;5093708;28;19961;-69
2022/10/16 12:23:48;;;;;;;;;;;18.40;99.90;;;;;;5093335;28;20380;-68
2022/10/16 12:26:14;;;;;;;;;;;18.50;99.90;;;;;;5093469;28;19908;-68
2022/10/16 12:28:41;;;;;;;;;;;18.40;99.90;;;;;;5093119;28;19934;-68
2022/10/16 12:31:12;;;;;;;;;;;18.30;99.90;;;;;;5092909;28;19912;-69
2022/10/16 12:33:43;;;;;;;;;;;18.30;99.90;;;;;;5092761;28;20002;-68
2022/10/16 12:36:26;;;;;;;;;;;18.20;99.90;;;;;;5092961;28;19912;-69
2022/10/16 12:38:54;;;;;;;;;;;18.10;99.90;;;;;;5092581;28;20014;-69
2022/10/16 12:41:26;;;;;;;;;;;18.10;99.90;;;;;;5092984;28;20002;-68
2022/10/16 12:43:53;;;;;;;;;;;18.10;99.90;;;;;;5092716;28;19908;-68
2022/10/16 12:46:22;;;;;;;;;;;18.10;99.90;;;;;;5092810;28;20379;-70
2022/10/16 12:48:50;;;;;;;;;;;18.10;99.90;;;;;;5092628;28;19915;-68
2022/10/16 12:51:35;;;;;;;;;;;18.10;99.90;;;;;;5092733;28;20002;-69
2022/10/16 12:54:03;;;;;;;;;;;17.90;99.90;;;;;;5092852;28;19911;-69
2022/10/16 12:56:48;;;;;;;;;;;17.90;99.90;;;;;;5092800;28;19908;-68
2022/10/16 12:59:23;;;;;;;;;;;17.90;99.90;;;;;;5092930;28;19917;-69
2022/10/16 13:01:56;;;;;;;;;;;17.80;99.90;;;;;;5092315;28;19913;-69
2022/10/16 13:04:35;;;;;;;;;;;17.80;99.90;;;;;;5092083;28;19912;-68
2022/10/16 13:07:02;;;;;;;;;;;17.80;99.90;;;;;;5092615;28;19916;-69
2022/10/16 13:09:28;;;;;;;;;;;17.70;99.90;;;;;;5092508;28;19908;-68
2022/10/16 13:12:21;;;;;;;;;;;17.80;99.90;;;;;;5091747;28;19912;-68
2022/10/16 13:15:02;;;;;;;;;;;17.60;99.90;;;;;;5087939;28;20365;-68
2022/10/16 13:17:28;;;;;;;;;;;17.60;99.90;;;;;;5092589;28;19966;-68
2022/10/16 13:20:13;;;;;;;;;;;17.60;99.90;;;;;;5092681;28;20031;-68
2022/10/16 13:22:58;;;;;;;;;;;17.60;99.90;;;;;;5092470;28;19908;-68
2022/10/16 13:25:31;;;;;;;;;;;17.60;99.90;;;;;;5092347;28;20330;-69
2022/10/16 13:28:00;;;;;;;;;;;17.50;99.90;;;;;;5092129;28;19908;-69
2022/10/16 13:30:28;;;;;;;;;;;17.50;99.90;;;;;;5092050;28;20315;-70
2022/10/16 13:33:00;;;;;;;;;;;17.50;99.90;;;;;;5092173;28;20297;-68
2022/10/16 13:35:28;;;;;;;;;;;17.50;99.90;;;;;;5092433;28;19914;-68
2022/10/16 13:38:15;;;;;;;;;;;17.50;99.90;;;;;;5092569;28;19915;-69
2022/10/16 13:40:51;;;;;;;;;;;17.60;99.90;;;;;;5091676;28;19924;-68
2022/10/16 13:43:19;;;;;;;;;;;17.50;99.90;;;;;;5096546;28;20356;-69
2022/10/16 13:46:00;;;;;;;;;;;17.50;99.90;;;;;;5096595;28;19908;-69
2022/10/16 13:48:26;;;;;;;;;;;17.50;99.90;;;;;;5078054;28;19912;-69
2022/10/16 13:51:03;;;;;;;;;;;17.50;99.90;;;;;;5096100;28;19912;-69
2022/10/16 13:53:31;;;;;;;;;;;17.40;99.90;;;;;;5096208;28;19908;-69
2022/10/16 13:56:00;;;;;;;;;;;17.50;99.90;;;;;;5096553;28;19908;-69
2022/10/16 13:58:26;;;;;;;;;;;17.50;99.90;;;;;;5095889;28;20379;-69
2022/10/16 14:01:01;;;;;;;;;;;17.50;99.90;;;;;;5095932;28;19916;-69
2022/10/16 14:03:28;;;;;;;;;;;17.50;99.90;;;;;;5096049;28;20364;-69
2022/10/16 14:06:03;;;;;;;;;;;17.60;99.90;;;;;;5096460;28;19976;-69
2022/10/16 14:08:30;;;;;;;;;;;17.60;99.90;;;;;;5096386;28;20310;-70
2022/10/16 14:10:58;;;;;;;;;;;17.70;99.90;;;;;;5096129;28;19908;-69
2022/10/16 14:13:29;;;;;;;;;;;17.70;99.90;;;;;;5095859;28;19960;-69
2022/10/16 14:15:58;;;;;;;;;;;17.70;99.90;;;;;;5095870;28;19920;-70
2022/10/16 14:18:27;;;;;;;;;;;17.70;99.90;;;;;;5095685;28;19919;-69
2022/10/16 14:20:54;;;;;;;;;;;17.80;99.90;;;;;;5095930;28;19912;-69
2022/10/16 14:23:28;;;;;;;;;;;17.80;99.90;;;;;;5095875;28;19915;-68
2022/10/16 14:26:05;;;;;;;;;;;17.80;99.90;;;;;;5096115;28;20026;-69
2022/10/16 14:28:32;;;;;;;;;;;17.80;99.90;;;;;;5096040;28;19919;-69
2022/10/16 14:31:00;;;;;;;;;;;17.80;99.90;;;;;;5095394;28;20008;-68
2022/10/16 14:33:29;;;;;;;;;;;17.80;99.90;;;;;;5095353;28;19916;-68